Time;durP1;ratioP1;P1;durP2;ratioP2;P2;SDS_P1;SDS_P2;PMS_P1;PMS_P2;Temp;Humidity;BMP_temperature;BMP_pressure;BME280_temperature;BME280_humidity;BME280_pressure;Samples;Min_cycle;Max_cycle;Signal;HPM_P1;HPM_P2
2022/06/11 00:00:00;;;;;;;8.90;5.28;;;16.10;1.00;;;;;;7391172;19;20029;-63
2022/06/11 00:02:31;;;;;;;8.98;4.53;;;16.20;1.00;;;;;;7366638;19;20019;-61
2022/06/11 00:05:01;;;;;;;12.73;5.13;;;16.20;1.00;;;;;;7369843;19;20026;-62
2022/06/11 00:07:34;;;;;;;9.35;4.60;;;16.20;1.00;;;;;;7364485;19;20517;-61
2022/06/11 00:10:05;;;;;;;8.20;4.60;;;16.10;1.00;;;;;;7369932;19;20015;-62
2022/06/11 00:12:35;;;;;;;9.18;5.32;;;16.00;1.00;;;;;;7363653;19;20095;-62
2022/06/11 00:15:07;;;;;;;7.70;4.80;;;15.90;1.00;;;;;;7392133;19;20494;-63
2022/06/11 00:17:37;;;;;;;6.55;4.82;;;15.90;1.00;;;;;;7366334;19;20397;-62
2022/06/11 00:20:08;;;;;;;8.57;4.97;;;15.90;1.00;;;;;;7368894;19;20017;-62
2022/06/11 00:22:42;;;;;;;9.82;5.40;;;16.00;1.00;;;;;;7366167;19;20074;-62
2022/06/11 00:25:12;;;;;;;;;;;16.10;1.00;;;;;;7370520;19;20003;-62
2022/06/11 00:27:42;;;;;;;8.10;5.13;;;16.00;1.00;;;;;;7365930;19;19922;-61
2022/06/11 00:30:13;;;;;;;5.10;4.60;;;16.00;1.00;;;;;;7391716;19;20010;-62
2022/06/11 00:32:44;;;;;;;9.00;5.40;;;15.90;1.00;;;;;;7366132;19;20014;-62
2022/06/11 00:35:16;;;;;;;8.57;5.95;;;15.90;1.00;;;;;;7368973;19;20014;-62
2022/06/11 00:37:48;;;;;;;8.88;5.22;;;16.00;1.00;;;;;;7364418;19;20471;-62
2022/06/11 00:40:21;;;;;;;7.03;5.07;;;15.90;1.00;;;;;;7369394;19;20017;-62
2022/06/11 00:42:51;;;;;;;8.38;5.53;;;15.90;1.00;;;;;;7365195;19;20025;-63
2022/06/11 00:45:27;;;;;;;7.38;5.50;;;15.80;1.00;;;;;;7369127;19;20010;-63
2022/06/11 00:48:02;;;;;;;7.93;5.40;;;15.80;1.00;;;;;;7386872;19;20043;-61
2022/06/11 00:50:37;;;;;;;8.38;5.55;;;15.80;1.00;;;;;;7368221;19;20014;-62
2022/06/11 00:53:16;;;;;;;9.15;4.72;;;15.80;1.00;;;;;;7366241;19;20007;-62
2022/06/11 00:55:48;;;;;;;7.30;5.30;;;15.70;1.00;;;;;;7366591;19;20367;-62
2022/06/11 00:58:21;;;;;;;8.70;5.70;;;15.80;1.00;;;;;;7363342;19;20019;-62
2022/06/11 01:00:55;;;;;;;8.57;5.45;;;15.90;1.00;;;;;;7365529;19;20515;-62
2022/06/11 01:03:30;;;;;;;6.88;5.22;;;15.80;1.00;;;;;;7366365;19;20014;-63
2022/06/11 01:06:12;;;;;;;11.77;5.00;;;15.80;1.00;;;;;;7388508;19;20017;-62
2022/06/11 01:09:01;;;;;;;9.98;5.05;;;15.80;1.00;;;;;;7360511;19;20078;-62
2022/06/11 01:11:40;;;;;;;12.10;5.28;;;15.80;1.00;;;;;;7366573;19;20010;-61
2022/06/11 01:14:26;;;;;;;6.65;4.63;;;15.90;1.00;;;;;;7368194;19;20043;-62
2022/06/11 01:17:06;;;;;;;10.93;5.10;;;16.00;1.00;;;;;;7364636;19;20709;-63
2022/06/11 01:20:12;;;;;;;9.23;5.05;;;15.80;1.00;;;;;;7364860;19;20010;-62
2022/06/11 01:23:06;;;;;;;8.70;4.93;;;15.80;1.00;;;;;;7362208;19;20033;-63
2022/06/11 01:25:55;;;;;;;8.57;4.90;;;15.70;1.00;;;;;;7366791;19;20021;-61
2022/06/11 01:28:40;;;;;;;8.07;5.05;;;15.70;1.00;;;;;;7363617;19;20010;-62
2022/06/11 01:31:22;;;;;;;5.93;5.00;;;15.60;1.00;;;;;;7366184;19;20014;-62
2022/06/11 01:34:00;;;;;;;7.90;5.22;;;15.70;1.00;;;;;;7364591;19;20014;-63
2022/06/11 01:36:34;;;;;;;7.15;5.00;;;15.70;1.00;;;;;;7365585;19;20530;-63
2022/06/11 01:39:09;;;;;;;5.68;4.60;;;15.60;1.00;;;;;;7384785;19;20014;-63
2022/06/11 01:41:44;;;;;;;11.75;4.68;;;15.50;1.00;;;;;;7365412;19;20017;-63
2022/06/11 01:44:20;;;;;;;7.68;5.13;;;15.60;1.00;;;;;;7367096;19;20021;-62
2022/06/11 01:46:56;;;;;;;8.05;4.30;;;15.60;1.00;;;;;;7365093;19;20015;-60
2022/06/11 01:49:39;;;;;;;7.03;4.70;;;15.50;1.00;;;;;;7363417;19;20498;-63
2022/06/11 01:52:23;;;;;;;7.68;4.75;;;15.50;1.00;;;;;;7362939;19;20010;-62
2022/06/11 01:55:00;;;;;;;9.25;4.68;;;15.50;1.00;;;;;;7368083;19;20010;-62
2022/06/11 01:57:55;;;;;;;7.00;4.65;;;15.40;1.00;;;;;;7362530;19;20014;-63
2022/06/11 02:00:27;;;;;;;9.75;4.78;;;15.40;1.00;;;;;;7366656;19;20011;-63
2022/06/11 02:03:26;;;;;;;8.48;5.15;;;15.40;1.00;;;;;;7384609;19;20090;-62
2022/06/11 02:06:20;;;;;;;6.45;4.50;;;15.40;1.00;;;;;;7364582;19;20014;-62
2022/06/11 02:09:13;;;;;;;8.13;5.40;;;15.40;1.00;;;;;;7360652;19;20015;-62
2022/06/11 02:11:47;;;;;;;7.18;5.22;;;15.40;1.00;;;;;;7362642;19;20021;-62
2022/06/11 02:14:23;;;;;;;10.05;5.05;;;15.30;1.00;;;;;;7366016;19;20017;-62
2022/06/11 02:16:57;;;;;;;7.70;4.53;;;15.30;1.00;;;;;;7363769;19;20006;-62
2022/06/11 02:19:33;;;;;;;8.38;5.20;;;15.20;1.90;;;;;;7363066;19;20509;-62
2022/06/11 02:22:07;;;;;;;7.50;5.03;;;15.10;2.20;;;;;;7360615;19;20011;-63
2022/06/11 02:24:42;;;;;;;8.02;5.15;;;15.10;2.10;;;;;;7367633;19;20021;-62
2022/06/11 02:27:17;;;;;;;8.50;5.50;;;15.00;2.90;;;;;;7383708;19;20022;-63
2022/06/11 02:29:48;;;;;;;6.68;5.15;;;14.90;3.70;;;;;;7361230;19;20020;-63
2022/06/11 02:32:21;;;;;;;11.40;5.38;;;15.00;3.70;;;;;;7362298;19;20010;-62
2022/06/11 02:34:59;;;;;;;7.15;5.05;;;14.90;3.90;;;;;;7365443;19;20510;-62
2022/06/11 02:37:31;;;;;;;6.22;5.05;;;14.90;4.30;;;;;;7362712;19;20520;-62
2022/06/11 02:40:06;;;;;;;8.50;5.13;;;14.80;4.20;;;;;;7364832;19;20066;-63
2022/06/11 02:42:37;;;;;;;7.18;4.68;;;14.90;4.50;;;;;;7361749;19;20346;-63
2022/06/11 02:45:10;;;;;;;7.10;5.05;;;14.80;3.80;;;;;;7386952;19;20011;-63
2022/06/11 02:47:40;;;;;;;8.52;4.93;;;14.80;3.90;;;;;;7361011;19;20013;-63
2022/06/11 02:50:19;;;;;;;5.32;4.82;;;14.80;4.70;;;;;;7363772;19;20081;-63
2022/06/11 02:52:49;;;;;;;9.50;5.60;;;14.80;3.90;;;;;;7361036;19;20164;-63
2022/06/11 02:55:20;;;;;;;10.25;5.00;;;14.80;4.90;;;;;;7365879;19;20002;-62
2022/06/11 02:57:50;;;;;;;11.20;5.25;;;14.80;4.70;;;;;;7360531;19;20015;-62
2022/06/11 03:00:23;;;;;;;8.30;5.13;;;14.80;3.70;;;;;;7363528;19;20011;-63
2022/06/11 03:02:53;;;;;;;6.68;4.45;;;14.70;3.80;;;;;;7382514;19;20528;-63
2022/06/11 03:05:28;;;;;;;9.40;4.88;;;14.60;4.60;;;;;;7364030;19;20031;-63
2022/06/11 03:07:59;;;;;;;;;;;14.50;5.40;;;;;;7361080;19;20261;-62
2022/06/11 03:10:30;;;;;;;7.43;4.93;;;14.50;5.50;;;;;;7363617;19;20360;-63
2022/06/11 03:13:00;;;;;;;6.93;5.28;;;14.40;5.80;;;;;;7360093;19;20078;-62
2022/06/11 03:15:31;;;;;;;6.78;5.13;;;14.50;6.40;;;;;;7364162;19;20014;-61
2022/06/11 03:18:02;;;;;;;6.32;5.03;;;14.40;7.00;;;;;;7381991;19;20474;-62
2022/06/11 03:20:34;;;;;;;5.22;4.05;;;14.40;7.00;;;;;;7363425;19;20082;-62
2022/06/11 03:23:04;;;;;;;11.27;5.05;;;14.40;6.80;;;;;;7360289;19;20025;-62
2022/06/11 03:25:35;;;;;;;9.30;4.93;;;14.30;6.70;;;;;;7362776;19;20160;-62
2022/06/11 03:28:09;;;;;;;8.55;4.53;;;14.40;7.00;;;;;;7360498;19;20011;-62
2022/06/11 03:30:39;;;;;;;6.60;4.65;;;14.30;7.00;;;;;;7363162;19;20010;-62
2022/06/11 03:33:15;;;;;;;6.88;4.80;;;14.40;6.40;;;;;;7376460;19;20068;-63
2022/06/11 03:35:49;;;;;;;8.18;5.13;;;14.60;6.20;;;;;;7384591;19;20524;-62
2022/06/11 03:38:19;;;;;;;6.95;4.72;;;14.70;4.80;;;;;;7360562;19;20043;-62
2022/06/11 03:40:50;;;;;;;7.53;4.78;;;14.90;3.60;;;;;;7361269;19;20381;-62
2022/06/11 03:43:20;;;;;;;8.05;5.00;;;15.50;1.00;;;;;;7368320;19;20010;-61
2022/06/11 03:45:50;;;;;;;6.50;4.90;;;16.00;1.00;;;;;;7370009;19;20384;-61
2022/06/11 03:48:20;;;;;;;6.00;4.30;;;16.20;1.00;;;;;;7366921;19;20021;-63
2022/06/11 03:50:52;;;;;;;8.55;5.35;;;16.50;1.00;;;;;;7389207;19;20025;-63
2022/06/11 03:53:22;;;;;;;4.78;4.10;;;17.10;1.00;;;;;;7369008;19;20011;-62
2022/06/11 03:55:52;;;;;;;6.35;4.40;;;17.40;1.00;;;;;;7367724;19;20027;-62
2022/06/11 03:58:23;;;;;;;7.93;4.30;;;17.90;1.00;;;;;;7366097;19;20014;-62
2022/06/11 04:03:36;;;;;;;6.85;4.47;;;17.90;1.00;;;;;;7368100;19;20406;-62
2022/06/11 04:06:09;;;;;;;6.22;4.28;;;18.30;1.00;;;;;;7391303;19;20014;-62
2022/06/11 04:08:41;;;;;;;7.57;4.55;;;18.40;1.00;;;;;;7366747;19;20014;-63
2022/06/11 04:11:11;;;;;;;8.98;4.35;;;18.10;1.00;;;;;;7365200;19;20010;-63
2022/06/11 04:13:45;;;;;;;6.60;4.22;;;18.80;1.00;;;;;;7368590;19;20019;-63
2022/06/11 04:16:30;;;;;;;7.63;3.85;;;19.20;1.00;;;;;;7369962;19;20010;-62
2022/06/11 04:19:02;;;;;;;7.32;4.15;;;19.80;1.00;;;;;;7365302;19;20010;-62
2022/06/11 04:21:37;;;;;;;5.75;3.83;;;20.20;1.00;;;;;;7368836;19;20733;-62
2022/06/11 04:24:09;;;;;;;4.85;3.75;;;20.00;1.00;;;;;;7391039;19;20007;-63
2022/06/11 04:26:41;;;;;;;3.90;3.50;;;20.20;1.00;;;;;;7366282;19;20018;-63
2022/06/11 04:29:15;;;;;;;5.47;3.60;;;21.20;1.00;;;;;;7366757;19;20016;-63
2022/06/11 04:31:46;;;;;;;7.45;3.35;;;20.60;1.00;;;;;;7365670;19;20049;-62
2022/06/11 04:34:17;;;;;;;4.38;3.22;;;20.70;1.00;;;;;;7367912;19;20014;-62
2022/06/11 04:36:51;;;;;;;5.93;3.13;;;20.60;1.00;;;;;;7365476;19;20018;-63
2022/06/11 04:39:23;;;;;;;5.05;3.33;;;20.40;1.00;;;;;;7364744;19;20375;-63
2022/06/11 04:41:54;;;;;;;4.43;3.38;;;21.00;1.00;;;;;;7385989;19;20018;-63
2022/06/11 04:44:25;;;;;;;6.20;3.47;;;21.40;1.00;;;;;;7367776;19;20010;-63
2022/06/11 04:46:56;;;;;;;6.50;2.97;;;21.70;1.00;;;;;;7365474;19;20025;-63
2022/06/11 04:49:26;;;;;;;5.93;3.53;;;21.40;1.00;;;;;;7364292;19;20025;-63
2022/06/11 04:51:58;;;;;;;4.80;3.08;;;21.80;1.00;;;;;;7362129;19;20015;-63
2022/06/11 04:54:28;;;;;;;6.90;3.42;;;21.70;1.00;;;;;;7366895;19;20018;-63
2022/06/11 04:56:58;;;;;;;5.00;3.53;;;21.00;1.00;;;;;;7385452;19;20027;-63
2022/06/11 04:59:30;;;;;;;5.53;3.28;;;22.60;1.00;;;;;;7366102;19;20014;-62
2022/06/11 05:02:00;;;;;;;4.00;3.30;;;22.30;1.00;;;;;;7368601;19;20852;-62
2022/06/11 05:04:30;;;;;;;6.07;3.38;;;22.70;1.00;;;;;;7365154;19;20023;-63
2022/06/11 05:07:02;;;;;;;5.93;3.13;;;23.00;1.00;;;;;;7365368;19;20081;-62
2022/06/11 05:09:33;;;;;;;3.90;2.92;;;23.00;1.00;;;;;;7366033;19;20073;-63
2022/06/11 05:12:04;;;;;;;5.00;3.45;;;22.70;1.00;;;;;;7389059;19;20428;-62
2022/06/11 05:14:34;;;;;;;4.60;3.10;;;22.80;1.00;;;;;;7365599;19;20089;-63
2022/06/11 05:17:04;;;;;;;7.22;3.38;;;23.30;1.00;;;;;;7364481;19;20074;-63
2022/06/11 05:19:34;;;;;;;4.93;3.38;;;22.30;1.00;;;;;;7363768;19;20007;-62
2022/06/11 05:22:07;;;;;;;7.00;3.33;;;22.50;1.00;;;;;;7367317;19;20363;-63
2022/06/11 05:24:38;;;;;;;5.38;3.20;;;22.80;1.00;;;;;;7363095;19;20101;-63
2022/06/11 05:27:17;;;;;;;6.05;3.38;;;23.60;1.00;;;;;;7383528;19;20019;-63
2022/06/11 05:29:52;;;;;;;5.75;3.58;;;23.10;1.00;;;;;;7365280;19;20035;-63
2022/06/11 05:32:23;;;;;;;6.28;3.30;;;23.40;1.00;;;;;;7362404;19;20039;-63
2022/06/11 05:34:53;;;;;;;7.10;3.35;;;22.90;1.00;;;;;;7367704;19;20010;-63
2022/06/11 05:37:26;;;;;;;4.03;3.20;;;22.70;1.00;;;;;;7362601;19;20014;-62
2022/06/11 05:39:56;;;;;;;5.47;3.20;;;23.00;1.00;;;;;;7364916;19;20014;-63
2022/06/11 05:42:28;;;;;;;5.13;3.55;;;22.60;1.00;;;;;;7365092;19;20030;-62
2022/06/11 05:44:58;;;;;;;4.70;3.28;;;22.30;1.00;;;;;;7389061;19;20006;-63
2022/06/11 05:47:30;;;;;;;4.72;3.30;;;22.80;1.00;;;;;;7363817;19;20381;-62
2022/06/11 05:50:02;;;;;;;3.97;3.58;;;22.50;1.00;;;;;;7363766;19;20061;-62
2022/06/11 05:52:43;;;;;;;4.07;3.22;;;22.30;1.00;;;;;;7364378;19;20017;-64
2022/06/11 05:55:13;;;;;;;6.75;3.53;;;23.10;1.00;;;;;;7366359;19;20011;-64
2022/06/11 05:57:43;;;;;;;7.10;3.53;;;23.10;1.00;;;;;;7362230;19;20038;-63
2022/06/11 06:00:17;;;;;;;4.20;2.88;;;23.00;1.00;;;;;;7388263;19;20023;-64
2022/06/11 06:02:47;;;;;;;;;;;22.20;1.00;;;;;;7364393;19;20010;-61
2022/06/11 06:05:28;;;;;;;5.28;3.30;;;20.90;1.00;;;;;;7364148;19;20710;-63
2022/06/11 06:08:01;;;;;;;3.10;2.65;;;20.30;1.00;;;;;;7361351;19;20103;-63
2022/06/11 06:10:31;;;;;;;3.40;2.85;;;20.20;1.00;;;;;;7366140;19;20002;-63
2022/06/11 06:13:01;;;;;;;3.47;2.63;;;20.30;1.00;;;;;;7361242;19;20053;-63
2022/06/11 06:15:52;;;;;;;4.15;2.65;;;20.10;1.00;;;;;;7366045;19;20006;-63
2022/06/11 06:18:23;;;;;;;5.05;2.83;;;19.90;1.00;;;;;;7361307;19;20051;-63
2022/06/11 06:20:53;;;;;;;3.55;2.63;;;20.30;1.00;;;;;;7388341;19;20014;-63
2022/06/11 06:23:26;;;;;;;3.40;2.53;;;20.70;1.00;;;;;;7362190;19;20014;-63
2022/06/11 06:25:55;;;;;;;4.68;2.28;;;21.20;1.00;;;;;;7365137;19;20095;-63
2022/06/11 06:28:25;;;;;;;5.70;2.63;;;20.90;1.00;;;;;;7361884;19;20010;-63
2022/06/11 06:30:58;;;;;;;4.45;2.63;;;20.80;1.00;;;;;;7364778;19;20107;-63
2022/06/11 06:33:30;;;;;;;3.95;2.38;;;20.90;1.00;;;;;;7360050;19;20010;-63
2022/06/11 06:36:00;;;;;;;4.63;2.47;;;20.60;1.00;;;;;;7385890;19;20039;-63
2022/06/11 06:38:32;;;;;;;4.25;2.50;;;22.00;1.00;;;;;;7359213;19;20346;-63
2022/06/11 06:41:03;;;;;;;3.05;2.40;;;22.30;1.00;;;;;;7364686;19;20010;-63
2022/06/11 06:43:34;;;;;;;6.03;2.38;;;21.80;1.00;;;;;;7363191;19;20093;-63
2022/06/11 06:46:04;;;;;;;4.07;2.42;;;22.00;1.00;;;;;;7362589;19;20010;-64
2022/06/11 06:48:40;;;;;;;3.70;2.63;;;21.00;1.00;;;;;;7360423;19;20028;-63
2022/06/11 06:51:10;;;;;;;4.13;2.40;;;21.40;1.00;;;;;;7386287;19;20018;-63
2022/06/11 06:53:45;;;;;;;3.88;2.50;;;21.80;1.00;;;;;;7358812;19;20015;-63
2022/06/11 06:56:15;;;;;;;5.80;3.22;;;21.60;1.00;;;;;;7362818;19;20082;-63
2022/06/11 06:58:45;;;;;;;5.50;2.80;;;21.40;1.00;;;;;;7360553;19;20014;-63
2022/06/11 07:01:15;;;;;;;4.72;3.10;;;21.50;1.00;;;;;;7363779;19;20017;-63
2022/06/11 07:03:45;;;;;;;6.93;2.70;;;21.60;1.00;;;;;;7361196;19;20478;-62
2022/06/11 07:06:37;;;;;;;3.03;2.53;;;21.70;1.00;;;;;;7363404;19;20065;-64
2022/06/11 07:09:10;;;;;;;4.70;2.90;;;21.80;1.00;;;;;;7382299;19;20078;-63
2022/06/11 07:11:40;;;;;;;2.85;2.55;;;22.00;1.00;;;;;;7364433;19;20015;-64
2022/06/11 07:14:10;;;;;;;4.72;2.72;;;22.50;1.00;;;;;;7361095;19;20097;-64
2022/06/11 07:16:44;;;;;;;4.70;3.20;;;22.10;1.00;;;;;;7367468;19;21655;-63
2022/06/11 07:19:17;;;;;;;4.50;2.72;;;22.20;1.00;;;;;;7370372;19;20090;-63
2022/06/11 07:21:51;;;;;;;2.90;2.08;;;22.00;1.00;;;;;;7371455;19;20112;-64
2022/06/11 07:24:26;;;;;;;;;;;22.50;1.00;;;;;;7370132;19;20123;-63
2022/06/11 07:27:02;;;;;;;4.07;2.42;;;22.50;1.00;;;;;;7386779;19;19979;-64
2022/06/11 07:29:36;;;;;;;3.65;2.72;;;23.00;1.00;;;;;;7369460;19;20015;-64
2022/06/11 07:32:10;;;;;;;4.20;2.50;;;22.80;1.00;;;;;;7369943;19;20018;-63
2022/06/11 07:34:40;;;;;;;2.92;2.15;;;23.00;1.00;;;;;;7368735;19;20007;-63
2022/06/11 07:37:10;;;;;;;4.50;2.53;;;23.10;1.00;;;;;;7365796;19;20021;-63
2022/06/11 07:39:43;;;;;;;4.88;1.92;;;22.70;1.00;;;;;;7369626;19;20014;-63
2022/06/11 07:42:13;;;;;;;4.55;2.60;;;22.20;1.00;;;;;;7390528;19;20018;-63
2022/06/11 07:44:43;;;;;;;3.35;2.15;;;22.30;1.00;;;;;;7369078;19;20486;-63
2022/06/11 07:47:13;;;;;;;4.72;1.95;;;22.00;1.00;;;;;;7366928;19;20575;-62
2022/06/11 07:49:46;;;;;;;3.70;2.20;;;21.90;1.00;;;;;;7367781;19;20082;-63
2022/06/11 07:52:15;;;;;;;4.88;2.35;;;22.30;1.00;;;;;;7368427;19;20078;-63
2022/06/11 07:54:48;;;;;;;3.30;2.15;;;22.10;1.00;;;;;;7370358;19;20078;-66
2022/06/11 07:57:18;;;;;;;5.63;2.15;;;22.40;1.00;;;;;;7365521;19;20026;-64
2022/06/11 07:59:47;;;;;;;5.18;2.70;;;22.20;1.00;;;;;;7390217;19;20429;-63
2022/06/11 08:02:17;;;;;;;4.45;2.30;;;22.60;1.00;;;;;;7368204;19;20010;-63
2022/06/11 08:04:47;;;;;;;5.13;2.17;;;22.70;1.00;;;;;;7368321;19;20006;-63
2022/06/11 08:07:17;;;;;;;4.43;2.15;;;23.00;1.00;;;;;;7365631;19;20010;-63
2022/06/11 08:09:49;;;;;;;4.47;2.17;;;23.20;1.00;;;;;;7368825;19;20014;-63
2022/06/11 08:12:19;;;;;;;4.07;1.90;;;22.70;1.00;;;;;;7367621;19;20020;-63
2022/06/11 08:14:49;;;;;;;2.50;1.95;;;22.70;1.00;;;;;;7389370;19;20353;-63
2022/06/11 08:17:19;;;;;;;4.65;2.10;;;22.70;1.00;;;;;;7366160;19;20006;-64
2022/06/11 08:19:49;;;;;;;4.47;2.17;;;23.20;1.00;;;;;;7367488;19;20006;-63
2022/06/11 08:22:19;;;;;;;2.10;1.60;;;22.90;1.00;;;;;;7366924;19;20021;-63
2022/06/11 08:24:51;;;;;;;2.95;1.92;;;23.10;1.00;;;;;;7366989;19;20351;-63
2022/06/11 08:27:21;;;;;;;3.92;2.20;;;23.20;1.00;;;;;;7362652;19;20025;-62
2022/06/11 08:29:51;;;;;;;5.38;2.17;;;23.40;1.00;;;;;;7389309;19;20015;-63
2022/06/11 08:32:21;;;;;;;5.97;2.22;;;23.60;1.00;;;;;;7366338;19;20010;-64
2022/06/11 08:34:51;;;;;;;4.03;1.80;;;23.30;1.00;;;;;;7367706;19;20089;-64
2022/06/11 08:37:21;;;;;;;3.55;2.20;;;23.30;1.00;;;;;;7364175;19;20010;-64
2022/06/11 08:39:54;;;;;;;6.85;3.15;;;23.60;1.00;;;;;;7366936;19;20021;-62
2022/06/11 08:42:35;;;;;;;3.08;2.10;;;23.90;1.00;;;;;;7367269;19;20014;-63
2022/06/11 08:45:09;;;;;;;3.15;1.77;;;23.20;1.00;;;;;;7390788;19;20070;-63
2022/06/11 08:47:45;;;;;;;2.78;2.13;;;23.40;1.00;;;;;;7364471;19;20015;-64
2022/06/11 08:50:19;;;;;;;5.72;2.28;;;23.30;1.00;;;;;;7368123;19;20088;-64
2022/06/11 08:52:49;;;;;;;4.70;2.05;;;23.50;1.00;;;;;;7363843;19;20578;-62
2022/06/11 08:55:23;;;;;;;5.47;1.55;;;23.70;1.00;;;;;;7368914;19;20494;-62
2022/06/11 08:58:03;;;;;;;3.67;2.17;;;23.60;1.00;;;;;;7363980;19;20053;-62
2022/06/11 09:00:45;;;;;;;4.28;1.60;;;23.70;1.00;;;;;;7368133;19;20012;-63
2022/06/11 09:03:30;;;;;;;3.72;1.73;;;23.90;1.00;;;;;;7371520;19;20673;-63
2022/06/11 09:06:37;;;;;;;4.18;1.88;;;24.10;1.00;;;;;;7368605;19;20486;-64
2022/06/11 09:09:16;;;;;;;5.32;1.80;;;24.00;1.00;;;;;;7386787;19;20010;-64
2022/06/11 09:12:02;;;;;;;4.32;1.50;;;24.10;1.00;;;;;;7367372;19;20086;-63
2022/06/11 09:14:49;;;;;;;4.80;1.90;;;24.00;1.00;;;;;;7361999;19;20054;-63
2022/06/11 09:17:43;;;;;;;3.22;1.92;;;24.10;1.00;;;;;;7364525;19;20101;-63
2022/06/11 09:20:22;;;;;;;4.65;1.95;;;24.20;1.00;;;;;;7366962;19;20010;-63
2022/06/11 09:23:16;;;;;;;2.58;1.55;;;24.10;1.00;;;;;;7364710;19;20018;-63
2022/06/11 09:25:58;;;;;;;4.43;1.67;;;24.10;1.00;;;;;;7367267;19;20017;-63
2022/06/11 09:28:41;;;;;;;5.18;2.22;;;24.10;1.00;;;;;;7362500;19;20081;-63
2022/06/11 09:31:15;;;;;;;6.07;2.10;;;24.00;1.00;;;;;;7367131;19;20028;-64
2022/06/11 09:33:50;;;;;;;;;;;24.30;1.00;;;;;;7363561;19;20091;-62
2022/06/11 09:36:25;;;;;;;5.22;1.50;;;24.40;1.00;;;;;;7365349;19;19921;-63
2022/06/11 09:39:04;;;;;;;3.28;1.75;;;23.90;1.00;;;;;;7381966;19;20014;-62
2022/06/11 09:41:43;;;;;;;2.88;1.60;;;24.00;1.00;;;;;;7365163;19;20023;-63
2022/06/11 09:44:30;;;;;;;3.33;1.80;;;24.40;1.00;;;;;;7363757;19;20010;-65
2022/06/11 09:47:07;;;;;;;1.85;1.50;;;24.60;1.00;;;;;;7363134;19;20120;-64
2022/06/11 09:49:50;;;;;;;6.35;2.28;;;24.20;1.00;;;;;;7365016;19;20098;-62
2022/06/11 09:52:25;;;;;;;6.13;2.25;;;24.10;1.00;;;;;;7364812;19;20017;-63
2022/06/11 09:54:57;;;;;;;7.53;1.90;;;24.40;1.00;;;;;;7366496;19;20018;-63
2022/06/11 09:57:46;;;;;;;4.50;1.77;;;24.40;1.00;;;;;;7361701;19;20014;-63
2022/06/11 10:00:26;;;;;;;4.70;1.88;;;24.30;1.00;;;;;;7373193;19;20601;-64
2022/06/11 10:03:09;;;;;;;5.05;2.17;;;24.50;1.00;;;;;;7385552;19;20016;-63
2022/06/11 10:05:46;;;;;;;5.05;2.10;;;24.10;1.00;;;;;;7365840;19;20675;-63
2022/06/11 10:08:21;;;;;;;4.55;1.90;;;24.50;1.00;;;;;;7361924;19;20387;-64
2022/06/11 10:10:54;;;;;;;4.57;1.80;;;24.40;1.00;;;;;;7365193;19;20109;-63
2022/06/11 10:13:37;;;;;;;9.30;2.00;;;24.50;1.00;;;;;;7362243;19;20006;-63
2022/06/11 10:16:25;;;;;;;6.13;2.13;;;24.20;1.00;;;;;;7365451;19;20086;-64
2022/06/11 10:19:00;;;;;;;4.03;1.90;;;24.90;1.00;;;;;;7362227;19;20263;-62
2022/06/11 10:21:32;;;;;;;4.22;2.00;;;25.50;1.00;;;;;;7366062;19;20104;-63
2022/06/11 10:24:08;;;;;;;4.10;1.85;;;25.90;1.00;;;;;;7383419;19;20014;-63
2022/06/11 10:26:42;;;;;;;4.20;1.73;;;25.90;1.00;;;;;;7363731;19;20014;-63
2022/06/11 10:29:26;;;;;;;3.03;1.63;;;25.20;1.00;;;;;;7362207;19;20014;-64
2022/06/11 10:32:07;;;;;;;3.60;1.92;;;25.10;1.00;;;;;;7364248;19;20331;-63
2022/06/11 10:34:41;;;;;;;3.97;1.80;;;24.70;1.00;;;;;;7359787;19;20027;-63
2022/06/11 10:37:20;;;;;;;3.40;1.50;;;24.70;1.00;;;;;;7361767;19;20101;-63
2022/06/11 10:39:57;;;;;;;3.42;1.92;;;25.10;1.00;;;;;;7364985;19;20031;-64
2022/06/11 10:42:34;;;;;;;5.03;1.63;;;25.00;1.00;;;;;;7360698;19;20463;-63
2022/06/11 10:45:04;;;;;;;2.72;1.58;;;25.60;1.00;;;;;;7386308;19;20021;-63
2022/06/11 10:47:39;;;;;;;3.08;1.63;;;26.00;1.00;;;;;;7360155;19;20011;-63
2022/06/11 10:50:20;;;;;;;3.90;1.58;;;25.50;1.00;;;;;;7363632;19;20017;-63
2022/06/11 10:52:58;;;;;;;6.65;1.80;;;24.80;1.00;;;;;;7360289;19;20014;-63
2022/06/11 10:55:35;;;;;;;2.53;1.55;;;25.20;1.00;;;;;;7363218;19;20093;-63
2022/06/11 10:58:14;;;;;;;3.20;1.63;;;25.70;1.00;;;;;;7360325;19;20148;-63
2022/06/11 11:00:51;;;;;;;3.92;1.77;;;25.60;1.00;;;;;;7365133;19;20010;-64
2022/06/11 11:03:31;;;;;;;2.47;1.52;;;26.10;1.00;;;;;;7360984;19;20018;-63
2022/06/11 11:06:05;;;;;;;5.45;1.60;;;26.30;1.00;;;;;;7383866;19;20014;-63
2022/06/11 11:08:37;;;;;;;3.42;1.60;;;25.80;1.00;;;;;;7358148;19;20011;-63
2022/06/11 11:11:11;;;;;;;2.78;1.42;;;26.00;1.00;;;;;;7363174;19;20018;-64
2022/06/11 11:13:44;;;;;;;2.88;1.75;;;26.00;1.00;;;;;;7361420;19;20003;-63
2022/06/11 11:16:23;;;;;;;3.58;1.70;;;26.50;1.00;;;;;;7364505;19;20007;-63
2022/06/11 11:19:06;;;;;;;3.88;1.73;;;25.30;1.00;;;;;;7359615;19;20467;-63
2022/06/11 11:21:38;;;;;;;2.17;1.52;;;25.80;1.00;;;;;;7364788;19;20004;-64
2022/06/11 11:24:14;;;;;;;1.92;1.30;;;25.20;1.00;;;;;;7382301;19;20149;-64
2022/06/11 11:26:54;;;;;;;2.35;1.42;;;25.40;1.00;;;;;;7359104;19;20042;-64
2022/06/11 11:29:28;;;;;;;2.25;1.50;;;26.10;1.00;;;;;;7361340;19;20007;-63
2022/06/11 11:32:02;;;;;;;3.97;1.83;;;26.20;1.00;;;;;;7363544;19;20010;-63
2022/06/11 11:34:44;;;;;;;3.53;1.70;;;26.10;1.00;;;;;;7359356;19;20058;-63
2022/06/11 11:37:33;;;;;;;3.95;1.70;;;26.40;1.00;;;;;;7360385;19;20010;-64
2022/06/11 11:40:04;;;;;;;2.60;1.55;;;26.30;1.00;;;;;;7363599;19;20045;-64
2022/06/11 11:42:38;;;;;;;2.60;1.50;;;26.60;1.00;;;;;;7359479;19;20093;-62
2022/06/11 11:45:23;;;;;;;2.85;1.55;;;26.70;1.00;;;;;;7384807;19;20022;-64
2022/06/11 11:47:57;;;;;;;4.18;1.50;;;26.80;1.00;;;;;;7357919;19;20466;-62
2022/06/11 11:50:33;;;;;;;2.65;1.60;;;26.70;1.00;;;;;;7362969;19;20037;-63
2022/06/11 11:53:08;;;;;;;5.60;1.67;;;26.50;1.00;;;;;;7358465;19;20480;-64
2022/06/11 11:55:42;;;;;;;4.72;1.75;;;26.00;1.00;;;;;;7361031;19;20074;-62
2022/06/11 11:58:17;;;;;;;;;;;25.50;1.00;;;;;;7359164;19;20009;-62
2022/06/11 12:00:53;;;;;;;4.43;2.00;;;25.70;1.00;;;;;;7362260;19;19907;-64
2022/06/11 12:03:26;;;;;;;3.08;1.70;;;25.70;1.00;;;;;;7363683;19;20094;-63
2022/06/11 12:06:01;;;;;;;4.68;1.52;;;25.60;1.00;;;;;;7390495;19;20018;-64
2022/06/11 12:08:33;;;;;;;4.30;1.67;;;25.80;1.00;;;;;;7364082;19;20011;-63
2022/06/11 12:11:03;;;;;;;2.85;1.70;;;25.80;1.00;;;;;;7368313;19;20014;-62
2022/06/11 12:13:46;;;;;;;5.13;1.58;;;25.90;1.00;;;;;;7367420;19;20066;-64
2022/06/11 12:16:21;;;;;;;3.28;2.00;;;26.50;1.00;;;;;;7369430;19;20047;-63
2022/06/11 12:18:54;;;;;;;4.93;1.90;;;26.40;1.00;;;;;;7364908;19;20759;-63
2022/06/11 12:21:29;;;;;;;3.38;1.67;;;26.90;1.00;;;;;;7369349;19;20475;-64
2022/06/11 12:24:02;;;;;;;5.13;1.65;;;26.20;1.00;;;;;;7385228;19;20017;-63
2022/06/11 12:26:37;;;;;;;2.63;1.50;;;26.40;1.00;;;;;;7367339;19;20027;-63
2022/06/11 12:29:14;;;;;;;5.63;1.88;;;27.00;1.00;;;;;;7365067;19;20228;-63
2022/06/11 12:31:45;;;;;;;4.03;1.67;;;27.00;1.00;;;;;;7368641;19;20089;-63
2022/06/11 12:34:17;;;;;;;2.90;1.95;;;26.20;1.00;;;;;;7364140;19;20139;-64
2022/06/11 12:36:58;;;;;;;4.28;2.20;;;26.80;1.00;;;;;;7363899;19;20041;-64
2022/06/11 12:39:45;;;;;;;3.53;1.70;;;27.00;1.00;;;;;;7367860;19;20010;-64
2022/06/11 12:42:23;;;;;;;3.83;1.83;;;26.40;1.00;;;;;;7377047;19;20090;-64
2022/06/11 12:45:03;;;;;;;4.68;1.90;;;26.20;1.00;;;;;;7390172;19;20003;-63
2022/06/11 12:47:54;;;;;;;3.42;1.63;;;26.00;1.00;;;;;;7363722;19;20035;-64
2022/06/11 12:50:58;;;;;;;4.30;1.80;;;25.40;1.00;;;;;;7368698;19;20022;-64
2022/06/11 12:53:54;;;;;;;1.85;1.48;;;25.70;1.00;;;;;;7363904;19;20306;-63
2022/06/11 12:56:46;;;;;;;8.45;2.13;;;26.10;1.00;;;;;;7365120;19;20010;-63
2022/06/11 12:59:40;;;;;;;5.15;2.10;;;26.40;1.00;;;;;;7365906;19;20014;-64
2022/06/11 13:02:22;;;;;;;1.70;1.60;;;26.80;1.00;;;;;;7367356;19;20014;-62
2022/06/11 13:05:24;;;;;;;3.15;1.83;;;26.50;1.00;;;;;;7365707;19;20103;-63
2022/06/11 13:08:04;;;;;;;3.53;1.58;;;25.80;1.00;;;;;;7360516;19;20024;-64
2022/06/11 13:10:43;;;;;;;2.83;1.63;;;25.50;1.00;;;;;;7366978;19;20017;-62
2022/06/11 13:13:31;;;;;;;4.43;2.38;;;26.50;1.00;;;;;;7361949;19;20011;-62
2022/06/11 13:16:07;;;;;;;7.93;1.90;;;27.00;1.00;;;;;;7366182;19;20089;-63
2022/06/11 13:19:00;;;;;;;4.40;1.60;;;27.10;1.00;;;;;;7360124;19;20022;-63
2022/06/11 13:21:39;;;;;;;3.83;2.10;;;27.00;1.00;;;;;;7366187;19;20091;-63
2022/06/11 13:24:21;;;;;;;5.20;2.13;;;27.10;1.00;;;;;;7384249;19;20354;-62
2022/06/11 13:27:03;;;;;;;3.78;1.70;;;26.90;1.00;;;;;;7362050;19;20007;-63
2022/06/11 13:29:48;;;;;;;3.63;1.70;;;27.00;1.00;;;;;;7363262;19;20022;-63
2022/06/11 13:32:26;;;;;;;3.65;1.48;;;26.30;1.00;;;;;;7362517;19;20077;-64
2022/06/11 13:35:09;;;;;;;5.97;1.80;;;26.90;1.00;;;;;;7365581;19;20019;-63
2022/06/11 13:37:48;;;;;;;6.43;2.55;;;26.70;1.00;;;;;;7359836;19;20010;-63
2022/06/11 13:40:28;;;;;;;3.85;1.83;;;27.40;1.00;;;;;;7364920;19;20015;-63
2022/06/11 13:43:22;;;;;;;4.18;2.00;;;27.10;1.00;;;;;;7361309;19;20090;-63